Van Buren, New York
Current Conditions -  °F | °C
As of 5:54 AM on Sunday 23 Nov 2014 (Local Time) from KFZY Reporting Station
Overcast Overcast  
Wind Chill: 42°   Ceiling: 3200
Heat Index: 45°   Visibility: 10mi
Dew Point: 39°   Wind: 6mph
Humidity: 80%   Direction: 200°SSW
Pressure: 30.02"   Gusts: NA
Location:  43.1825°N, 76.3664°W
Report Text: KFZY 231054Z AUTO 20005KT 10SM OVC032 07/04 A3002 RMK AO2 SLP169 T00720039
Loading
Personal Weather Stations






























Interactive Weather Map New forecast layout! Learn more

10-Day Weather Forecast

Advertisements
Track Severe Weather on mobile